Time;durP1;ratioP1;P1;durP2;ratioP2;P2;SDS_P1;SDS_P2;PMS_P1;PMS_P2;Temp;Humidity;BMP_temperature;BMP_pressure;BME280_temperature;BME280_humidity;BME280_pressure;Samples;Min_cycle;Max_cycle;Signal;HPM_P1;HPM_P2
2021/09/07 00:00:29;;;;;;;;;;;;;;;11.69;75.68;100482.34;5114480;28;20365;-73
2021/09/07 00:02:58;;;;;;;;;;;;;;;11.65;75.80;100480.59;5114505;28;19928;-73
2021/09/07 00:05:30;;;;;;;;;;;;;;;11.64;76.13;100478.00;5113674;28;19924;-73
2021/09/07 00:07:58;;;;;;;;;;;;;;;11.60;76.59;100472.03;5114376;28;20027;-73
2021/09/07 00:10:27;;;;;;;;;;;;;;;11.58;76.41;100471.16;5114382;28;20022;-73
2021/09/07 00:12:58;;;;;;;;;;;;;;;11.55;76.23;100473.69;5114427;28;19959;-73
2021/09/07 00:15:27;;;;;;;;;;;;;;;11.52;76.31;100471.09;5114704;28;19924;-73
2021/09/07 00:17:56;;;;;;;;;;;;;;;11.51;76.98;100471.97;5114978;28;19928;-73
2021/09/07 00:20:25;;;;;;;;;;;;;;;11.48;76.74;100474.50;5114558;28;19924;-73
2021/09/07 00:22:55;;;;;;;;;;;;;;;11.47;76.70;100462.53;5114382;28;19924;-73
2021/09/07 00:25:24;;;;;;;;;;;;;;;11.50;76.63;100472.81;5114320;28;19977;-73
2021/09/07 00:27:53;;;;;;;;;;;;;;;11.66;76.78;100468.69;5114484;28;19974;-73
2021/09/07 00:30:22;;;;;;;;;;;;;;;11.82;76.45;100466.28;5114013;28;20041;-73
2021/09/07 00:32:50;;;;;;;;;;;;;;;11.95;75.64;100470.59;5114190;28;19924;-73
2021/09/07 00:35:19;;;;;;;;;;;;;;;12.07;75.31;100468.13;5114550;28;20438;-73
2021/09/07 00:37:48;;;;;;;;;;;;;;;12.15;74.80;100464.75;5114117;28;19928;-73
2021/09/07 00:40:19;;;;;;;;;;;;;;;12.18;74.37;100454.53;5114281;28;19935;-73
2021/09/07 00:42:48;;;;;;;;;;;;;;;12.19;74.03;100456.25;5114150;28;19935;-73
2021/09/07 00:45:16;;;;;;;;;;;;;;;12.17;74.00;100456.22;5114423;28;19930;-73
2021/09/07 00:47:45;;;;;;;;;;;;;;;12.22;73.66;100457.13;5114353;28;20361;-73
2021/09/07 00:50:15;;;;;;;;;;;;;;;12.22;73.59;100466.50;5114223;28;19930;-75
2021/09/07 00:52:45;;;;;;;;;;;;;;;12.25;73.30;100466.50;5113852;28;19986;-75
2021/09/07 00:55:14;;;;;;;;;;;;;;;12.28;73.39;100463.97;5113949;28;19930;-75
2021/09/07 00:57:47;;;;;;;;;;;;;;;12.31;73.20;100466.56;5114076;28;19923;-75
2021/09/07 01:00:15;;;;;;;;;;;;;;;12.30;72.89;100459.72;5112608;28;19931;-74
2021/09/07 01:02:44;;;;;;;;;;;;;;;12.26;72.88;100461.38;5113866;28;19923;-73
2021/09/07 01:05:14;;;;;;;;;;;;;;;12.24;72.88;100459.69;5114195;28;19927;-73
2021/09/07 01:07:43;;;;;;;;;;;;;;;12.17;73.27;100457.94;5113781;28;19963;-73
2021/09/07 01:10:12;;;;;;;;;;;;;;;12.18;72.75;100454.53;5113820;28;20026;-73
2021/09/07 01:12:45;;;;;;;;;;;;;;;12.15;73.03;100457.06;5114158;28;20345;-73
2021/09/07 01:15:16;;;;;;;;;;;;;;;12.12;72.87;100459.63;5114861;28;19947;-73
2021/09/07 01:17:48;;;;;;;;;;;;;;;11.98;72.85;100446.75;5117821;28;19969;-73
2021/09/07 01:20:17;;;;;;;;;;;;;;;11.84;73.11;100454.34;5117716;28;19923;-73
2021/09/07 01:22:46;;;;;;;;;;;;;;;11.75;73.54;100454.28;5117484;28;19963;-73
2021/09/07 01:25:17;;;;;;;;;;;;;;;11.79;73.59;100461.13;5117912;28;20374;-73
2021/09/07 01:27:46;;;;;;;;;;;;;;;11.79;73.66;100456.00;5117476;28;19930;-73
2021/09/07 01:30:15;;;;;;;;;;;;;;;11.76;73.70;100461.09;5117529;28;20308;-73
2021/09/07 01:32:45;;;;;;;;;;;;;;;11.57;73.86;100454.09;5117105;28;19924;-73
2021/09/07 01:35:14;;;;;;;;;;;;;;;11.40;73.92;100458.22;5117116;28;19923;-73
2021/09/07 01:37:42;;;;;;;;;;;;;;;11.30;74.61;100454.72;5117380;28;19930;-73
2021/09/07 01:40:12;;;;;;;;;;;;;;;11.11;74.65;100450.31;5116976;28;19924;-73
2021/09/07 01:42:42;;;;;;;;;;;;;;;10.94;74.73;100458.66;5116939;28;19955;-73
2021/09/07 01:45:12;;;;;;;;;;;;;;;10.74;74.98;100461.84;5116916;28;19924;-72
2021/09/07 01:47:41;;;;;;;;;;;;;;;10.70;75.50;100460.09;5117240;28;20380;-72
2021/09/07 01:50:11;;;;;;;;;;;;;;;10.71;75.80;100460.97;5117080;28;20396;-72
2021/09/07 01:52:39;;;;;;;;;;;;;;;10.81;75.89;100459.34;5098056;28;20018;-72
2021/09/07 01:55:11;;;;;;;;;;;;;;;10.72;76.27;100463.50;5117125;28;20468;-73
2021/09/07 01:57:40;;;;;;;;;;;;;;;10.64;76.70;100459.19;5116975;28;19924;-72
2021/09/07 02:00:10;;;;;;;;;;;;;;;10.63;76.68;100453.19;5116609;28;20027;-72
2021/09/07 02:02:43;;;;;;;;;;;;;;;10.60;76.49;100457.44;5115282;28;20381;-72
2021/09/07 02:05:14;;;;;;;;;;;;;;;10.54;76.85;100458.22;5117503;28;19924;-72
2021/09/07 02:07:42;;;;;;;;;;;;;;;10.73;77.53;100461.81;5116844;28;19930;-72
2021/09/07 02:10:11;;;;;;;;;;;;;;;10.91;76.96;100456.94;5116261;28;19928;-72
2021/09/07 02:12:41;;;;;;;;;;;;;;;11.05;77.20;100457.06;5116417;28;19924;-73
2021/09/07 02:15:12;;;;;;;;;;;;;;;11.14;76.32;100465.66;5116717;28;19928;-72
2021/09/07 02:17:42;;;;;;;;;;;;;;;11.09;76.40;100454.53;5116625;28;20345;-72
2021/09/07 02:20:12;;;;;;;;;;;;;;;10.93;76.09;100454.38;5116284;28;19923;-72
2021/09/07 02:22:42;;;;;;;;;;;;;;;10.77;76.27;100453.38;5116312;28;19977;-72
2021/09/07 02:25:12;;;;;;;;;;;;;;;10.74;76.36;100446.53;5116203;28;19928;-72
2021/09/07 02:27:41;;;;;;;;;;;;;;;10.77;77.10;100451.66;5115977;28;19924;-72
2021/09/07 02:30:13;;;;;;;;;;;;;;;10.86;76.52;100450.91;5115932;28;20360;-72
2021/09/07 02:32:42;;;;;;;;;;;;;;;10.88;76.34;100450.91;5114765;28;20389;-74
2021/09/07 02:35:13;;;;;;;;;;;;;;;10.86;76.33;100450.06;5116011;28;19924;-72
2021/09/07 02:37:42;;;;;;;;;;;;;;;10.86;75.97;100452.59;5115883;28;19969;-72
2021/09/07 02:40:12;;;;;;;;;;;;;;;10.61;76.14;100451.47;5116107;28;19928;-72
2021/09/07 02:42:42;;;;;;;;;;;;;;;10.51;76.33;100447.97;5115770;28;19924;-72
2021/09/07 02:45:13;;;;;;;;;;;;;;;10.42;76.76;100445.31;5115719;28;19923;-72
2021/09/07 02:47:43;;;;;;;;;;;;;;;10.35;76.44;100445.22;5115729;28;19963;-72
2021/09/07 02:50:13;;;;;;;;;;;;;;;10.31;77.00;100444.31;5115546;28;19923;-72
2021/09/07 02:52:42;;;;;;;;;;;;;;;10.29;77.32;100440.91;5115335;28;20015;-72
2021/09/07 02:55:12;;;;;;;;;;;;;;;10.37;77.27;100439.28;5115373;28;19969;-72
2021/09/07 02:57:41;;;;;;;;;;;;;;;10.49;77.05;100434.31;5115536;28;19924;-72
2021/09/07 03:00:11;;;;;;;;;;;;;;;10.58;77.11;100444.63;5115416;28;19924;-72
2021/09/07 03:02:41;;;;;;;;;;;;;;;10.65;76.98;100446.41;5115361;28;19931;-72
2021/09/07 03:05:12;;;;;;;;;;;;;;;10.72;76.74;100447.38;5115400;28;20015;-72
2021/09/07 03:07:41;;;;;;;;;;;;;;;10.73;76.50;100447.38;5115274;28;20396;-72
2021/09/07 03:10:11;;;;;;;;;;;;;;;10.80;76.59;100450.00;5115225;28;20452;-72
2021/09/07 03:12:39;;;;;;;;;;;;;;;10.92;76.74;100445.03;5115238;28;19935;-72
2021/09/07 03:15:10;;;;;;;;;;;;;;;10.95;76.61;100439.94;5115424;28;19950;-72
2021/09/07 03:17:39;;;;;;;;;;;;;;;10.92;76.06;100434.81;5115101;28;19971;-72
2021/09/07 03:20:09;;;;;;;;;;;;;;;10.85;76.26;100435.56;5115083;28;20294;-72
2021/09/07 03:22:38;;;;;;;;;;;;;;;10.67;76.00;100439.66;5115112;28;19930;-72
2021/09/07 03:25:08;;;;;;;;;;;;;;;10.60;75.84;100448.09;5114874;28;19931;-72
2021/09/07 03:27:37;;;;;;;;;;;;;;;10.58;76.08;100444.63;5114932;28;19930;-72
2021/09/07 03:30:07;;;;;;;;;;;;;;;10.73;76.51;100443.94;5114782;28;20381;-72
2021/09/07 03:32:36;;;;;;;;;;;;;;;10.75;76.35;100442.25;5113668;28;19924;-72
2021/09/07 03:35:06;;;;;;;;;;;;;;;10.63;75.87;100442.13;5114975;28;20431;-72
2021/09/07 03:37:37;;;;;;;;;;;;;;;10.55;76.16;100449.72;5114727;28;19931;-72
2021/09/07 03:40:08;;;;;;;;;;;;;;;10.41;76.94;100446.16;5115123;28;19924;-72
2021/09/07 03:42:37;;;;;;;;;;;;;;;10.33;76.18;100452.00;5115061;28;19966;-72
2021/09/07 03:45:07;;;;;;;;;;;;;;;10.35;76.53;100451.16;5114500;28;19930;-72
2021/09/07 03:47:37;;;;;;;;;;;;;;;10.27;77.25;100442.56;5114980;28;19924;-72
2021/09/07 03:50:06;;;;;;;;;;;;;;;10.27;76.56;100437.44;5114600;28;20026;-72
2021/09/07 03:52:37;;;;;;;;;;;;;;;10.24;77.14;100447.63;5114330;28;19924;-72
2021/09/07 03:55:08;;;;;;;;;;;;;;;10.24;76.63;100442.53;5114462;28;19923;-72
2021/09/07 03:57:38;;;;;;;;;;;;;;;10.30;77.27;100442.59;5114595;28;19928;-72
2021/09/07 04:00:07;;;;;;;;;;;;;;;10.20;76.58;100438.22;5114864;28;20042;-72
2021/09/07 04:02:42;;;;;;;;;;;;;;;10.12;77.48;100447.47;5114534;28;20373;-72
2021/09/07 04:05:11;;;;;;;;;;;;;;;10.06;77.43;100442.25;5114674;28;19996;-74
2021/09/07 04:07:41;;;;;;;;;;;;;;;10.03;77.38;100448.16;5114452;28;19931;-74
2021/09/07 04:10:11;;;;;;;;;;;;;;;10.01;77.67;100448.97;5114683;28;19927;-74
2021/09/07 04:12:42;;;;;;;;;;;;;;;9.97;77.40;100453.19;5114792;28;19927;-74
2021/09/07 04:15:13;;;;;;;;;;;;;;;9.99;78.00;100445.56;5114290;28;19924;-74
2021/09/07 04:17:41;;;;;;;;;;;;;;;10.03;77.63;100447.28;5114594;28;20014;-74
2021/09/07 04:20:11;;;;;;;;;;;;;;;10.00;77.80;100454.94;5114223;28;19981;-74
2021/09/07 04:22:43;;;;;;;;;;;;;;;10.02;78.01;100461.75;5114388;28;19935;-74
2021/09/07 04:25:12;;;;;;;;;;;;;;;10.19;78.10;100453.50;5114230;28;20373;-72
2021/09/07 04:27:41;;;;;;;;;;;;;;;10.35;77.85;100461.38;5114451;28;19928;-72
2021/09/07 04:30:10;;;;;;;;;;;;;;;10.43;77.61;100458.94;5114104;28;19932;-72
2021/09/07 04:32:39;;;;;;;;;;;;;;;10.53;78.01;100455.66;5114546;28;19976;-72
2021/09/07 04:35:12;;;;;;;;;;;;;;;10.62;77.25;100466.81;5114157;28;19927;-72
2021/09/07 04:37:43;;;;;;;;;;;;;;;10.71;77.30;100472.03;5114166;28;20011;-72
2021/09/07 04:40:12;;;;;;;;;;;;;;;10.74;77.38;100464.41;5114153;28;19924;-72
2021/09/07 04:42:40;;;;;;;;;;;;;;;10.74;77.01;100461.84;5114165;28;20027;-72
2021/09/07 04:45:10;;;;;;;;;;;;;;;10.77;77.28;100466.16;5113990;28;19924;-73
2021/09/07 04:47:39;;;;;;;;;;;;;;;10.84;77.14;100461.94;5114624;28;19924;-74
2021/09/07 04:50:10;;;;;;;;;;;;;;;11.00;77.32;100467.22;5114001;28;19924;-74
2021/09/07 04:52:38;;;;;;;;;;;;;;;11.18;77.08;100474.22;5117620;28;19924;-74
2021/09/07 04:55:09;;;;;;;;;;;;;;;11.33;76.97;100474.34;5117807;28;19924;-75
2021/09/07 04:57:39;;;;;;;;;;;;;;;11.44;76.82;100471.03;5117814;28;19924;-72
2021/09/07 05:00:08;;;;;;;;;;;;;;;11.53;76.27;100467.72;5117759;28;19924;-72
2021/09/07 05:02:38;;;;;;;;;;;;;;;11.64;76.50;100475.44;5117684;28;19924;-72
2021/09/07 05:05:07;;;;;;;;;;;;;;;11.67;76.12;100480.59;5117677;28;19923;-72
2021/09/07 05:07:37;;;;;;;;;;;;;;;11.70;75.69;100483.22;5117517;28;19955;-72
2021/09/07 05:10:06;;;;;;;;;;;;;;;11.78;75.92;100490.09;5117823;28;20323;-72
2021/09/07 05:12:37;;;;;;;;;;;;;;;11.88;75.65;100486.75;5117522;28;20310;-72
2021/09/07 05:15:06;;;;;;;;;;;;;;;12.01;75.61;100483.44;5117830;28;19924;-72
2021/09/07 05:17:35;;;;;;;;;;;;;;;12.14;75.45;100488.66;5117315;28;19930;-72
2021/09/07 05:20:04;;;;;;;;;;;;;;;12.24;75.76;100481.00;5117407;28;19970;-72
2021/09/07 05:22:34;;;;;;;;;;;;;;;12.34;74.92;100484.47;5117726;28;20405;-72
2021/09/07 05:25:05;;;;;;;;;;;;;;;12.39;74.68;100481.09;5117273;28;19974;-72
2021/09/07 05:27:36;;;;;;;;;;;;;;;12.41;74.81;100484.50;5117278;28;19972;-72
2021/09/07 05:30:06;;;;;;;;;;;;;;;12.46;74.62;100487.09;5117041;28;19924;-72
2021/09/07 05:32:35;;;;;;;;;;;;;;;12.51;74.57;100491.41;5117196;27;19928;-72
2021/09/07 05:35:05;;;;;;;;;;;;;;;12.55;74.45;100499.94;5117179;28;19963;-72
2021/09/07 05:37:38;;;;;;;;;;;;;;;12.60;74.47;100493.13;5116992;28;19924;-72
2021/09/07 05:40:09;;;;;;;;;;;;;;;12.68;74.42;100496.59;5117029;28;20278;-72
2021/09/07 05:42:42;;;;;;;;;;;;;;;12.73;74.44;100497.47;5116920;28;20288;-72
2021/09/07 05:45:12;;;;;;;;;;;;;;;12.81;74.44;100488.09;5116961;28;19928;-72
2021/09/07 05:47:40;;;;;;;;;;;;;;;12.89;74.33;100483.84;5116853;28;20022;-72
2021/09/07 05:50:10;;;;;;;;;;;;;;;12.97;74.11;100492.41;5116829;28;19923;-72
2021/09/07 05:52:40;;;;;;;;;;;;;;;13.11;74.15;100480.50;5116444;28;19995;-72
2021/09/07 05:55:10;;;;;;;;;;;;;;;13.25;74.05;100483.94;5116773;28;19924;-72
2021/09/07 05:57:41;;;;;;;;;;;;;;;13.37;73.77;100480.53;5116921;28;20436;-72
2021/09/07 06:00:11;;;;;;;;;;;;;;;13.47;73.94;100483.97;5116682;28;19959;-72
2021/09/07 06:02:40;;;;;;;;;;;;;;;13.52;73.35;100484.81;5116184;28;19974;-72
2021/09/07 06:05:09;;;;;;;;;;;;;;;13.57;73.14;100488.25;5116896;27;20365;-72
2021/09/07 06:07:38;;;;;;;;;;;;;;;13.67;73.47;100488.25;5116422;28;19924;-71
2021/09/07 06:10:07;;;;;;;;;;;;;;;13.78;73.10;100489.09;5116265;28;19924;-74
2021/09/07 06:12:38;;;;;;;;;;;;;;;13.91;73.14;100489.94;5116232;28;19924;-74
2021/09/07 06:15:09;;;;;;;;;;;;;;;14.11;73.02;100490.75;5116307;28;19923;-75
2021/09/07 06:17:38;;;;;;;;;;;;;;;14.31;72.57;100489.03;5116162;28;19931;-75
2021/09/07 06:20:08;;;;;;;;;;;;;;;14.53;72.72;100485.53;5116136;28;20011;-74
2021/09/07 06:22:37;;;;;;;;;;;;;;;14.75;72.31;100487.16;5116429;28;19928;-74
2021/09/07 06:25:08;;;;;;;;;;;;;;;14.91;71.96;100484.50;5081297;28;19924;-72
2021/09/07 06:27:36;;;;;;;;;;;;;;;15.06;71.37;100487.00;5116452;28;19945;-72
2021/09/07 06:30:06;;;;;;;;;;;;;;;15.23;71.03;100480.03;5116031;28;20019;-72
2021/09/07 06:32:37;;;;;;;;;;;;;;;15.35;70.57;100469.66;5115812;28;19931;-72
2021/09/07 06:35:06;;;;;;;;;;;;;;;15.41;69.91;100467.88;5115907;28;20031;-72
2021/09/07 06:37:36;;;;;;;;;;;;;;;15.46;69.85;100473.03;5115843;28;20361;-72
2021/09/07 06:40:05;;;;;;;;;;;;;;;15.52;69.61;100473.00;5115671;28;19923;-72
2021/09/07 06:42:34;;;;;;;;;;;;;;;15.58;69.10;100477.22;5115779;28;19958;-72
2021/09/07 06:45:03;;;;;;;;;;;;;;;15.63;69.12;100483.19;5115411;28;20393;-72
2021/09/07 06:47:32;;;;;;;;;;;;;;;15.68;69.32;100478.84;5115473;28;20010;-72
2021/09/07 06:50:03;;;;;;;;;;;;;;;15.75;68.84;100489.06;5108972;28;19924;-72
2021/09/07 06:52:31;;;;;;;;;;;;;;;15.79;68.93;100483.03;5102685;28;19927;-75
2021/09/07 06:55:01;;;;;;;;;;;;;;;15.87;69.00;100483.81;5111655;28;19931;-72
2021/09/07 06:57:30;;;;;;;;;;;;;;;15.95;69.19;100488.91;5115438;28;19923;-72
2021/09/07 06:59:58;;;;;;;;;;;;;;;16.04;68.88;100487.09;5115325;28;19977;-71
2021/09/07 07:02:27;;;;;;;;;;;;;;;16.08;68.73;100488.75;5114241;28;19923;-73
2021/09/07 07:04:56;;;;;;;;;;;;;;;16.13;68.70;100487.84;5115268;28;19928;-72
2021/09/07 07:07:26;;;;;;;;;;;;;;;16.20;68.38;100494.63;5115213;28;19931;-72
2021/09/07 07:09:55;;;;;;;;;;;;;;;16.19;68.43;100487.78;5115341;28;19927;-72
2021/09/07 07:12:24;;;;;;;;;;;;;;;16.26;68.35;100479.13;5114495;28;19935;-72
2021/09/07 07:14:52;;;;;;;;;;;;;;;16.34;68.38;100487.63;5114884;28;19924;-72
2021/09/07 07:17:21;;;;;;;;;;;;;;;16.44;68.06;100489.22;5115079;28;19930;-72
2021/09/07 07:19:51;;;;;;;;;;;;;;;16.54;68.15;100491.72;5115014;28;19966;-72
2021/09/07 07:22:20;;;;;;;;;;;;;;;16.66;68.07;100485.56;5115266;28;19924;-72
2021/09/07 07:24:50;;;;;;;;;;;;;;;16.77;67.84;100499.19;5114917;28;19928;-73
2021/09/07 07:27:19;;;;;;;;;;;;;;;16.83;67.50;100496.50;5114897;28;20377;-72
2021/09/07 07:29:48;;;;;;;;;;;;;;;16.84;66.75;100505.97;5114868;28;19978;-72
2021/09/07 07:32:18;;;;;;;;;;;;;;;16.86;66.37;100499.06;5114638;28;19946;-72
2021/09/07 07:34:46;;;;;;;;;;;;;;;16.90;65.89;100494.69;5114680;28;19969;-72
2021/09/07 07:37:15;;;;;;;;;;;;;;;16.94;65.73;100499.78;5114531;28;20301;-73
2021/09/07 07:39:44;;;;;;;;;;;;;;;17.01;65.81;100498.00;5114541;28;19931;-73
2021/09/07 07:42:14;;;;;;;;;;;;;;;17.03;65.37;100499.69;5114502;28;19924;-72
2021/09/07 07:44:43;;;;;;;;;;;;;;;17.01;65.30;100498.81;5114486;28;19923;-72
2021/09/07 07:47:12;;;;;;;;;;;;;;;17.01;65.35;100503.16;5114431;28;20381;-72
2021/09/07 07:49:40;;;;;;;;;;;;;;;16.98;65.35;100508.34;5114669;28;19924;-72
2021/09/07 07:52:10;;;;;;;;;;;;;;;16.98;65.22;100508.34;5113102;28;19957;-72
2021/09/07 07:54:38;;;;;;;;;;;;;;;16.99;65.17;100513.47;5115184;28;20279;-72
2021/09/07 07:57:07;;;;;;;;;;;;;;;17.01;64.93;100514.31;5114677;28;19923;-72
2021/09/07 07:59:38;;;;;;;;;;;;;;;17.04;64.72;100514.28;5114812;28;19924;-72
2021/09/07 08:02:08;;;;;;;;;;;;;;;17.10;64.51;100519.34;5114646;28;19924;-72
2021/09/07 08:04:52;;;;;;;;;;;;;;;17.14;64.26;100526.16;5114370;28;20365;-72
2021/09/07 08:07:21;;;;;;;;;;;;;;;17.18;64.04;100525.25;5114991;28;20312;-72
2021/09/07 08:09:50;;;;;;;;;;;;;;;17.23;63.76;100526.03;5114382;28;20027;-73
2021/09/07 08:12:18;;;;;;;;;;;;;;;17.24;63.29;100525.19;5114239;28;19960;-73
2021/09/07 08:14:49;;;;;;;;;;;;;;;17.29;63.15;100523.38;5114064;28;20004;-72
2021/09/07 08:17:17;;;;;;;;;;;;;;;17.40;63.27;100526.66;5114965;28;20330;-73
2021/09/07 08:19:46;;;;;;;;;;;;;;;17.53;63.03;100518.75;5114204;28;19924;-73
2021/09/07 08:22:14;;;;;;;;;;;;;;;17.65;62.59;100514.25;5114222;28;19928;-72
2021/09/07 08:24:43;;;;;;;;;;;;;;;17.73;62.37;100519.31;5116012;28;19924;-72
2021/09/07 08:27:12;;;;;;;;;;;;;;;17.82;62.29;100511.41;5118368;28;19935;-72
2021/09/07 08:29:40;;;;;;;;;;;;;;;17.92;62.43;100510.38;5118431;28;19924;-72
2021/09/07 08:32:10;;;;;;;;;;;;;;;17.99;62.11;100517.13;5118470;28;20325;-73
2021/09/07 08:34:39;;;;;;;;;;;;;;;18.09;61.78;100516.09;5118337;28;19924;-73
2021/09/07 08:37:08;;;;;;;;;;;;;;;18.14;61.09;100513.44;5117849;28;19977;-73
2021/09/07 08:39:36;;;;;;;;;;;;;;;18.20;61.00;100516.75;5118409;28;20377;-73
2021/09/07 08:42:08;;;;;;;;;;;;;;;18.28;60.88;100520.03;5117776;28;19958;-73
2021/09/07 08:44:37;;;;;;;;;;;;;;;18.40;60.51;100514.66;5117948;28;19927;-73
2021/09/07 08:47:06;;;;;;;;;;;;;;;18.53;60.30;100516.13;5117976;28;19930;-73
2021/09/07 08:49:36;;;;;;;;;;;;;;;18.63;60.26;100520.25;5117647;28;20032;-73
2021/09/07 08:52:04;;;;;;;;;;;;;;;18.73;60.46;100520.91;5117540;28;19924;-74
2021/09/07 08:54:33;;;;;;;;;;;;;;;18.77;60.16;100521.69;5117775;28;19924;-74
2021/09/07 08:57:02;;;;;;;;;;;;;;;18.82;59.84;100522.44;5118162;28;19924;-75
2021/09/07 08:59:31;;;;;;;;;;;;;;;18.92;59.60;100526.53;5099245;28;20045;-75
2021/09/07 09:02:11;;;;;;;;;;;;;;;19.02;59.32;100520.28;5118302;28;19924;-73
2021/09/07 09:04:45;;;;;;;;;;;;;;;19.18;59.78;100521.66;5117780;28;19924;-72
2021/09/07 09:07:21;;;;;;;;;;;;;;;19.33;59.41;100519.59;5117680;28;19924;-75
2021/09/07 09:09:53;;;;;;;;;;;;;;;19.53;58.71;100526.91;5117439;28;19930;-75
2021/09/07 09:12:28;;;;;;;;;;;;;;;19.72;58.15;100533.38;5117768;28;20022;-75
2021/09/07 09:14:58;;;;;;;;;;;;;;;19.96;57.83;100532.72;5117723;28;20022;-76
2021/09/07 09:17:28;;;;;;;;;;;;;;;20.12;57.52;100527.16;5117577;28;19924;-75
2021/09/07 09:20:00;;;;;;;;;;;;;;;20.19;57.15;100528.72;5117303;28;19969;-75
2021/09/07 09:22:40;;;;;;;;;;;;;;;20.22;56.77;100524.34;5116002;28;19924;-77
2021/09/07 09:25:20;;;;;;;;;;;;;;;20.24;56.63;100537.25;5117527;28;19923;-76
2021/09/07 09:27:50;;;;;;;;;;;;;;;20.17;56.37;100535.69;5117499;28;20396;-76
2021/09/07 09:30:24;;;;;;;;;;;;;;;20.20;56.19;100535.59;5115763;28;19924;-75
2021/09/07 09:32:58;;;;;;;;;;;;;;;20.26;56.31;100541.50;5117278;28;20378;-75
2021/09/07 09:35:31;;;;;;;;;;;;;;;20.28;56.79;100541.44;5117165;28;20283;-76
2021/09/07 09:38:01;;;;;;;;;;;;;;;20.28;56.67;100544.03;5116932;28;20344;-76
2021/09/07 09:40:31;;;;;;;;;;;;;;;20.34;56.62;100534.38;5116937;28;19963;-75
2021/09/07 09:43:00;;;;;;;;;;;;;;;20.38;56.38;100540.31;5115735;28;19930;-76
2021/09/07 09:45:30;;;;;;;;;;;;;;;20.43;56.81;100539.31;5116919;28;19976;-76
2021/09/07 09:48:03;;;;;;;;;;;;;;;20.48;56.36;100547.81;5034500;28;19940;-76
2021/09/07 09:50:36;;;;;;;;;;;;;;;20.48;56.13;100534.00;5017620;28;20016;-75
2021/09/07 09:53:08;;;;;;;;;;;;;;;20.50;56.10;100532.22;5032785;28;20543;-76
2021/09/07 09:55:37;;;;;;;;;;;;;;;20.49;56.20;100530.53;5033956;28;19931;-76
2021/09/07 09:58:07;;;;;;;;;;;;;;;20.57;56.53;100520.75;5033877;28;19925;-76
2021/09/07 10:00:36;;;;;;;;;;;;;;;20.66;56.29;100523.09;5033932;28;19929;-76
2021/09/07 10:03:09;;;;;;;;;;;;;;;20.66;56.13;100520.50;5033682;28;20375;-75
2021/09/07 10:05:44;;;;;;;;;;;;;;;20.60;55.55;100520.69;5056074;28;19931;-75
2021/09/07 10:08:15;;;;;;;;;;;;;;;20.51;55.54;100515.75;5115198;28;20035;-76
2021/09/07 10:10:50;;;;;;;;;;;;;;;20.63;56.14;100516.28;5115224;28;19955;-76
2021/09/07 10:13:20;;;;;;;;;;;;;;;20.75;55.71;100512.47;5116360;28;20014;-74
2021/09/07 10:15:53;;;;;;;;;;;;;;;20.82;53.96;100516.59;5116138;28;19924;-73
2021/09/07 10:18:34;;;;;;;;;;;;;;;20.82;52.98;100521.78;5116290;28;19931;-76
2021/09/07 10:21:12;;;;;;;;;;;;;;;20.76;52.67;100516.75;5116819;27;20350;-74
2021/09/07 10:23:52;;;;;;;;;;;;;;;20.68;52.42;100523.94;5116120;28;19924;-73
2021/09/07 10:26:36;;;;;;;;;;;;;;;20.64;53.30;100509.31;5116161;28;19924;-73
2021/09/07 10:29:06;;;;;;;;;;;;;;;20.61;53.39;100518.03;5116179;28;19924;-74
2021/09/07 10:31:39;;;;;;;;;;;;;;;20.63;53.54;100507.63;5116751;28;20278;-74
2021/09/07 10:34:12;;;;;;;;;;;;;;;20.64;53.78;100506.72;5115914;28;19930;-73
2021/09/07 10:39:39;;;;;;;;;;;;;;;20.76;53.85;100506.38;5112913;27;19957;-73
2021/09/07 10:42:11;;;;;;;;;;;;;;;20.80;53.97;100505.41;5111765;28;20338;-73
2021/09/07 10:44:43;;;;;;;;;;;;;;;20.86;53.90;100507.81;5112096;28;20377;-73
2021/09/07 10:47:13;;;;;;;;;;;;;;;20.92;53.45;100507.66;5112113;28;19924;-73
2021/09/07 10:49:46;;;;;;;;;;;;;;;21.01;53.67;100514.31;5111641;28;19928;-73
2021/09/07 10:52:17;;;;;;;;;;;;;;;21.11;53.76;100503.63;5111741;28;19928;-73
2021/09/07 10:54:48;;;;;;;;;;;;;;;21.17;53.41;100506.03;5111969;28;19928;-73
2021/09/07 10:57:27;;;;;;;;;;;;;;;21.17;52.49;100495.66;5111510;28;19924;-73
2021/09/07 10:59:57;;;;;;;;;;;;;;;21.27;52.25;100499.66;5111582;28;19934;-73
2021/09/07 11:02:33;;;;;;;;;;;;;;;21.35;51.69;100502.84;5111519;28;19928;-73
2021/09/07 11:05:11;;;;;;;;;;;;;;;21.44;51.49;100498.28;5111459;28;19970;-73
2021/09/07 11:07:53;;;;;;;;;;;;;;;21.50;51.18;100500.69;5111324;28;19924;-73
2021/09/07 11:10:31;;;;;;;;;;;;;;;21.52;50.25;100499.75;5110231;28;20332;-73
2021/09/07 11:13:00;;;;;;;;;;;;;;;21.58;49.96;100506.47;5111350;28;19931;-73
2021/09/07 11:15:30;;;;;;;;;;;;;;;21.65;49.32;100503.63;5111171;28;19924;-73
2021/09/07 11:18:00;;;;;;;;;;;;;;;21.68;49.37;100497.47;5111209;28;19957;-73
2021/09/07 11:20:33;;;;;;;;;;;;;;;21.71;48.71;100497.38;5111188;28;19928;-73
2021/09/07 11:23:09;;;;;;;;;;;;;;;21.73;47.53;100498.19;5111457;28;19924;-73
2021/09/07 11:25:40;;;;;;;;;;;;;;;21.77;47.15;100499.75;5111101;28;20382;-73
2021/09/07 11:28:10;;;;;;;;;;;;;;;21.84;47.44;100496.06;5110952;28;19975;-74
2021/09/07 11:30:40;;;;;;;;;;;;;;;21.92;47.60;100494.09;5111016;28;19938;-74
2021/09/07 11:33:10;;;;;;;;;;;;;;;21.95;46.66;100489.63;5110964;28;19924;-73
2021/09/07 11:35:40;;;;;;;;;;;;;;;22.06;46.51;100483.22;5110832;28;19933;-74
2021/09/07 11:38:10;;;;;;;;;;;;;;;22.09;46.22;100480.50;5119500;28;20320;-74
2021/09/07 11:40:43;;;;;;;;;;;;;;;22.11;46.20;100487.34;5130980;28;19924;-73
2021/09/07 11:43:15;;;;;;;;;;;;;;;22.16;45.99;100485.44;5131269;28;19923;-73
2021/09/07 11:45:43;;;;;;;;;;;;;;;22.22;45.40;100487.81;5131005;28;19930;-73
2021/09/07 11:48:12;;;;;;;;;;;;;;;22.30;44.63;100491.00;5130826;28;19924;-74
2021/09/07 11:50:41;;;;;;;;;;;;;;;22.37;44.28;100484.69;5118662;28;19975;-73
2021/09/07 11:53:10;;;;;;;;;;;;;;;22.53;44.78;100485.81;5117092;28;19930;-73
2021/09/07 11:55:51;;;;;;;;;;;;;;;22.74;44.75;100475.56;5117118;28;20305;-73
2021/09/07 11:58:29;;;;;;;;;;;;;;;22.85;44.64;100479.44;5117135;28;20448;-73
2021/09/07 12:01:08;;;;;;;;;;;;;;;22.89;44.57;100477.59;5117163;28;20427;-73
2021/09/07 12:03:41;;;;;;;;;;;;;;;23.03;44.04;100478.75;5117161;28;19927;-74
2021/09/07 12:06:12;;;;;;;;;;;;;;;23.19;44.09;100473.78;5117366;28;20393;-73
2021/09/07 12:08:42;;;;;;;;;;;;;;;23.30;43.72;100482.00;5117068;28;19924;-73
2021/09/07 12:11:13;;;;;;;;;;;;;;;23.38;43.99;100479.13;5116852;28;19949;-74
2021/09/07 12:13:43;;;;;;;;;;;;;;;23.52;44.05;100469.84;5116986;28;20018;-74
2021/09/07 12:16:12;;;;;;;;;;;;;;;23.55;43.89;100472.31;5116847;28;19930;-74
2021/09/07 12:18:43;;;;;;;;;;;;;;;23.65;44.18;100471.03;5116717;28;19924;-74
2021/09/07 12:21:17;;;;;;;;;;;;;;;23.74;43.75;100472.41;5116600;28;19923;-75
2021/09/07 12:23:46;;;;;;;;;;;;;;;23.81;43.80;100466.88;5116634;28;19923;-74
2021/09/07 12:26:15;;;;;;;;;;;;;;;23.90;43.75;100469.06;5116709;28;19931;-74
2021/09/07 12:28:45;;;;;;;;;;;;;;;23.90;43.75;100463.00;5116640;28;19931;-74
2021/09/07 12:31:19;;;;;;;;;;;;;;;23.87;44.08;100466.59;5098468;28;19923;-74
2021/09/07 12:33:51;;;;;;;;;;;;;;;23.86;44.39;100461.44;5116545;28;19976;-75
2021/09/07 12:36:21;;;;;;;;;;;;;;;23.90;45.26;100458.66;5116489;28;20366;-74
2021/09/07 12:38:50;;;;;;;;;;;;;;;24.11;45.38;100451.69;5116013;28;20365;-74
2021/09/07 12:41:20;;;;;;;;;;;;;;;24.30;44.78;100447.38;5116298;28;19923;-74
2021/09/07 12:43:53;;;;;;;;;;;;;;;24.31;44.40;100442.97;5116414;28;19973;-74
2021/09/07 12:46:22;;;;;;;;;;;;;;;24.34;44.21;100442.84;5116231;28;19967;-74
2021/09/07 12:48:51;;;;;;;;;;;;;;;24.45;44.35;100440.59;5116117;28;19923;-74
2021/09/07 12:51:21;;;;;;;;;;;;;;;24.65;45.37;100437.91;5116051;28;20018;-74
2021/09/07 12:53:52;;;;;;;;;;;;;;;24.82;47.10;100435.41;5116113;28;20032;-74